Time;durP1;ratioP1;P1;durP2;ratioP2;P2;SDS_P1;SDS_P2;PMS_P1;PMS_P2;Temp;Humidity;BMP_temperature;BMP_pressure;BME280_temperature;BME280_humidity;BME280_pressure;Samples;Min_cycle;Max_cycle;Signal;HPM_P1;HPM_P2
2022/04/05 00:01:49;;;;;;;;;;;;;;;3.94;85.75;97645.91;8398515;28;19920;-70
2022/04/05 00:05:50;;;;;;;;;;;;;;;4.02;85.61;97637.19;8396082;28;19920;-71
2022/04/05 00:09:51;;;;;;;;;;;;;;;4.12;85.19;97642.31;8399080;28;19920;-70
2022/04/05 00:13:51;;;;;;;;;;;;;;;4.16;85.12;97657.41;8399186;28;20007;-70
2022/04/05 00:17:52;;;;;;;;;;;;;;;4.13;85.70;97649.19;8398367;28;19986;-70
2022/04/05 00:21:54;;;;;;;;;;;;;;;4.18;85.10;97636.50;8398295;28;20400;-71
2022/04/05 00:25:54;;;;;;;;;;;;;;;4.29;83.92;97630.94;8398047;28;19920;-70
2022/04/05 00:29:55;;;;;;;;;;;;;;;4.28;84.38;97630.16;8398146;28;20011;-71
2022/04/05 00:33:56;;;;;;;;;;;;;;;4.31;83.78;97629.56;8397785;28;19927;-71
2022/04/05 00:37:57;;;;;;;;;;;;;;;4.42;83.11;97620.19;8398008;28;20307;-70
2022/04/05 00:41:58;;;;;;;;;;;;;;;4.47;82.80;97628.09;8362432;28;19969;-71
2022/04/05 00:45:59;;;;;;;;;;;;;;;4.47;82.99;97617.41;8397090;28;19921;-71
2022/04/05 00:50:00;;;;;;;;;;;;;;;4.45;83.54;97619.56;8398304;28;19927;-70
2022/04/05 00:54:03;;;;;;;;;;;;;;;4.53;82.43;97605.50;8396560;28;20390;-71
2022/04/05 00:58:04;;;;;;;;;;;;;;;4.56;82.19;97610.22;8398219;28;20379;-70
2022/04/05 01:02:05;;;;;;;;;;;;;;;4.59;82.13;97601.59;8395557;28;20019;-71
2022/04/05 01:06:06;;;;;;;;;;;;;;;4.68;80.90;97602.44;8397246;28;20001;-70
2022/04/05 01:10:07;;;;;;;;;;;;;;;4.68;81.05;97602.44;8397373;28;19927;-71
2022/04/05 01:14:08;;;;;;;;;;;;;;;4.66;81.55;97593.91;8397570;28;19924;-70
2022/04/05 01:18:09;;;;;;;;;;;;;;;4.66;81.86;97599.25;8396646;28;20355;-70
2022/04/05 01:22:10;;;;;;;;;;;;;;;4.63;81.82;97594.53;8394835;28;20512;-70
2022/04/05 01:26:11;;;;;;;;;;;;;;;4.67;82.06;97611.53;8396500;28;19920;-71
2022/04/05 01:30:12;;;;;;;;;;;;;;;4.71;81.62;97605.56;8396352;28;19924;-70
2022/04/05 01:34:17;;;;;;;;;;;;;;;4.70;82.16;97582.63;8411471;28;19928;-70
2022/04/05 01:38:18;;;;;;;;;;;;;;;4.72;82.27;97585.75;8393598;28;19927;-71
2022/04/05 01:42:19;;;;;;;;;;;;;;;4.62;82.54;97590.28;8396171;28;20038;-71
2022/04/05 01:46:20;;;;;;;;;;;;;;;4.71;81.80;97594.88;8377181;28;19927;-70
2022/04/05 01:50:21;;;;;;;;;;;;;;;4.74;81.59;97596.94;8395863;28;20001;-71
2022/04/05 01:54:21;;;;;;;;;;;;;;;4.71;82.09;97600.22;8393484;28;20275;-70
2022/04/05 01:58:22;;;;;;;;;;;;;;;4.68;82.17;97589.06;8405813;28;20019;-70
2022/04/05 02:02:23;;;;;;;;;;;;;;;4.68;82.37;97597.09;8409758;28;19921;-71
2022/04/05 02:06:24;;;;;;;;;;;;;;;4.68;82.12;97618.47;8395196;28;19927;-71
2022/04/05 02:10:25;;;;;;;;;;;;;;;4.75;81.50;97601.22;8395318;28;19935;-70
2022/04/05 02:14:26;;;;;;;;;;;;;;;4.67;82.06;97590.16;8395517;28;19962;-71
2022/04/05 02:18:27;;;;;;;;;;;;;;;4.71;82.25;97600.22;8395473;28;19920;-70
2022/04/05 02:22:29;;;;;;;;;;;;;;;4.75;81.89;97590.50;8394433;28;20296;-72
2022/04/05 02:26:30;;;;;;;;;;;;;;;4.73;82.00;97587.34;8395644;28;20017;-71
2022/04/05 02:30:31;;;;;;;;;;;;;;;4.73;82.00;97592.69;8394133;28;20273;-71
2022/04/05 02:34:33;;;;;;;;;;;;;;;4.76;82.01;97586.75;8391308;28;20019;-70
2022/04/05 02:38:33;;;;;;;;;;;;;;;4.72;82.24;97591.09;8392496;28;19920;-70
2022/04/05 02:42:34;;;;;;;;;;;;;;;4.72;82.10;97575.06;8394656;28;20303;-71
2022/04/05 02:46:35;;;;;;;;;;;;;;;4.79;82.08;97580.75;8392682;28;19920;-70
2022/04/05 02:50:36;;;;;;;;;;;;;;;4.73;82.53;97582.00;8395104;28;19921;-70
2022/04/05 02:54:37;;;;;;;;;;;;;;;4.74;82.60;97572.88;8375424;28;19927;-71
2022/04/05 02:58:38;;;;;;;;;;;;;;;4.77;82.44;97583.75;8394452;28;19920;-70
2022/04/05 03:02:39;;;;;;;;;;;;;;;4.79;82.03;97575.41;8358510;28;20441;-70
2022/04/05 03:06:40;;;;;;;;;;;;;;;4.81;81.97;97589.28;8394937;28;19920;-70
2022/04/05 03:10:40;;;;;;;;;;;;;;;4.84;81.48;97572.59;8405096;28;20012;-70
2022/04/05 03:14:42;;;;;;;;;;;;;;;4.83;81.87;97587.06;8405615;28;20283;-70
2022/04/05 03:18:45;;;;;;;;;;;;;;;4.88;81.34;97584.25;8420394;28;19932;-70
2022/04/05 03:22:49;;;;;;;;;;;;;;;4.91;81.29;97572.97;8405158;28;19920;-69
2022/04/05 03:26:50;;;;;;;;;;;;;;;4.86;81.63;97581.13;8402816;28;19920;-70
2022/04/05 03:30:51;;;;;;;;;;;;;;;4.83;81.90;97581.72;8403635;28;19974;-70
2022/04/05 03:34:53;;;;;;;;;;;;;;;4.83;81.86;97576.38;8405033;28;20418;-70
2022/04/05 03:38:53;;;;;;;;;;;;;;;4.79;83.18;97580.75;8405251;28;19927;-71
2022/04/05 03:42:54;;;;;;;;;;;;;;;4.75;83.98;97574.47;8404586;28;19920;-70
2022/04/05 03:46:57;;;;;;;;;;;;;;;4.69;84.35;97581.81;8405400;28;19920;-70
2022/04/05 03:51:08;;;;;;;;;;;;;;;4.75;83.74;97574.47;8404211;28;19924;-71
2022/04/05 03:55:09;;;;;;;;;;;;;;;4.68;84.02;97574.91;8404949;28;19978;-71
2022/04/05 03:59:09;;;;;;;;;;;;;;;4.68;84.38;97581.03;8399324;28;19952;-71
2022/04/05 04:03:10;;;;;;;;;;;;;;;4.68;84.55;97581.03;8379715;28;19920;-71
2022/04/05 04:07:11;;;;;;;;;;;;;;;4.63;84.18;97581.16;8406273;28;19920;-72
2022/04/05 04:11:12;;;;;;;;;;;;;;;4.68;83.27;97586.38;8405609;28;20502;-70
2022/04/05 04:15:12;;;;;;;;;;;;;;;4.70;83.73;97583.41;8402660;28;19955;-71
2022/04/05 04:19:13;;;;;;;;;;;;;;;4.73;83.50;97582.00;8400337;28;19924;-70
2022/04/05 04:23:14;;;;;;;;;;;;;;;4.77;83.17;97593.66;8399769;28;19954;-70
2022/04/05 04:27:18;;;;;;;;;;;;;;;4.76;83.45;97589.41;8399258;28;19921;-71
2022/04/05 04:31:19;;;;;;;;;;;;;;;4.68;84.01;97581.03;8398306;28;20017;-70
2022/04/05 04:35:20;;;;;;;;;;;;;;;4.66;84.19;97582.41;8399310;28;20359;-70
2022/04/05 04:39:21;;;;;;;;;;;;;;;4.60;84.60;97595.13;8396997;28;19966;-70
2022/04/05 04:43:23;;;;;;;;;;;;;;;4.62;84.35;97602.84;8413479;28;20350;-70
2022/04/05 04:47:23;;;;;;;;;;;;;;;4.61;84.88;97604.75;8398504;28;19921;-70
2022/04/05 04:51:24;;;;;;;;;;;;;;;4.60;85.17;97611.19;8398335;28;19924;-70
2022/04/05 04:55:25;;;;;;;;;;;;;;;4.61;85.37;97612.75;8398644;28;19920;-70
2022/04/05 04:59:26;;;;;;;;;;;;;;;4.56;86.17;97610.22;8398198;28;19974;-70
2022/04/05 05:03:26;;;;;;;;;;;;;;;4.53;86.16;97616.19;8397425;28;19951;-69
2022/04/05 05:07:30;;;;;;;;;;;;;;;4.48;86.43;97618.97;8394333;28;19920;-71
2022/04/05 05:11:31;;;;;;;;;;;;;;;4.46;86.95;97628.38;8397857;28;19924;-70
2022/04/05 05:15:32;;;;;;;;;;;;;;;4.50;86.36;97606.09;8398157;28;19920;-70
2022/04/05 05:19:33;;;;;;;;;;;;;;;4.46;86.21;97626.50;8397971;28;20315;-70
2022/04/05 05:23:34;;;;;;;;;;;;;;;4.44;86.82;97634.03;8397744;28;20381;-70
2022/04/05 05:27:35;;;;;;;;;;;;;;;4.42;86.81;97641.59;8398039;28;19920;-70
2022/04/05 05:31:36;;;;;;;;;;;;;;;4.47;86.86;97638.78;8397266;28;19921;-69
2022/04/05 05:35:36;;;;;;;;;;;;;;;4.45;87.01;97650.84;8397832;28;19959;-69
2022/04/05 05:39:37;;;;;;;;;;;;;;;4.50;86.29;97656.88;8396002;28;19934;-70
2022/04/05 05:43:38;;;;;;;;;;;;;;;4.50;86.21;97648.84;8397215;28;19920;-70
2022/04/05 05:47:39;;;;;;;;;;;;;;;4.52;86.08;97657.38;8397213;28;19920;-70
2022/04/05 05:51:40;;;;;;;;;;;;;;;4.50;85.88;97664.91;8396517;28;20015;-70
2022/04/05 05:55:41;;;;;;;;;;;;;;;4.52;85.51;97662.72;8395451;28;20394;-71
2022/04/05 05:59:42;;;;;;;;;;;;;;;4.56;85.45;97674.38;8396821;28;19920;-69
2022/04/05 06:03:46;;;;;;;;;;;;;;;4.56;85.83;97669.03;8410568;28;19920;-71
2022/04/05 06:07:47;;;;;;;;;;;;;;;4.58;86.13;97688.25;8396434;28;20395;-70
2022/04/05 06:11:48;;;;;;;;;;;;;;;4.60;86.59;97678.00;8396098;28;19990;-70
2022/04/05 06:15:49;;;;;;;;;;;;;;;4.58;86.56;97688.25;8396073;28;19920;-70
2022/04/05 06:19:50;;;;;;;;;;;;;;;4.58;86.52;97698.94;8409926;28;19921;-71
2022/04/05 06:23:52;;;;;;;;;;;;;;;4.66;86.70;97711.56;8395661;28;19928;-70
2022/04/05 06:27:53;;;;;;;;;;;;;;;4.64;87.03;97703.06;8395231;28;19920;-70
2022/04/05 06:31:54;;;;;;;;;;;;;;;4.61;87.05;97710.91;8395496;28;20304;-70
2022/04/05 06:35:59;;;;;;;;;;;;;;;4.68;86.64;97714.75;8393505;28;19920;-71
2022/04/05 06:40:00;;;;;;;;;;;;;;;4.66;86.80;97711.56;8388123;28;19920;-71
2022/04/05 06:44:01;;;;;;;;;;;;;;;4.67;86.74;97717.72;8409305;28;19924;-70
2022/04/05 06:48:02;;;;;;;;;;;;;;;4.68;86.37;97720.09;8392998;28;20026;-71
2022/04/05 06:52:03;;;;;;;;;;;;;;;4.76;86.56;97728.50;8409784;28;19924;-70
2022/04/05 06:56:06;;;;;;;;;;;;;;;4.77;86.98;97738.06;8395176;28;19931;-70
2022/04/05 07:00:08;;;;;;;;;;;;;;;4.67;87.82;97739.09;8394917;28;20422;-71
2022/04/05 07:04:09;;;;;;;;;;;;;;;4.57;89.17;97750.81;8394363;28;20105;-70
2022/04/05 07:08:13;;;;;;;;;;;;;;;4.55;90.48;97761.03;8394405;28;19947;-71
2022/04/05 07:12:13;;;;;;;;;;;;;;;4.57;90.67;97750.81;8394892;28;19924;-71
2022/04/05 07:16:14;;;;;;;;;;;;;;;4.71;90.74;97749.97;8393815;28;19990;-71
2022/04/05 07:20:15;;;;;;;;;;;;;;;4.73;90.20;97761.97;8394491;28;20283;-71
2022/04/05 07:24:16;;;;;;;;;;;;;;;4.73;90.47;97761.97;8395049;28;19920;-71
2022/04/05 07:28:16;;;;;;;;;;;;;;;4.73;90.62;97769.19;8391847;28;20438;-72
2022/04/05 07:32:17;;;;;;;;;;;;;;;4.74;90.59;97776.13;8395242;28;19931;-72
2022/04/05 07:36:18;;;;;;;;;;;;;;;4.92;90.98;97778.63;8395681;28;19920;-72
2022/04/05 07:40:19;;;;;;;;;;;;;;;5.03;88.81;97784.50;8394421;28;19939;-71
2022/04/05 07:44:19;;;;;;;;;;;;;;;5.13;88.17;97778.91;8394367;28;20023;-71
2022/04/05 07:48:21;;;;;;;;;;;;;;;5.26;89.13;97778.06;8393659;28;20019;-71
2022/04/05 07:52:22;;;;;;;;;;;;;;;5.39;87.24;97769.16;8394490;28;20287;-71
2022/04/05 07:56:23;;;;;;;;;;;;;;;5.44;87.33;97779.75;8401701;28;19921;-71
2022/04/05 08:00:25;;;;;;;;;;;;;;;5.81;86.99;97775.03;8400340;28;19982;-71
2022/04/05 08:04:27;;;;;;;;;;;;;;;5.98;82.61;97772.41;8399947;28;19921;-71
2022/04/05 08:08:28;;;;;;;;;;;;;;;6.05;81.55;97788.84;8400049;28;20352;-71
2022/04/05 08:12:39;;;;;;;;;;;;;;;6.09;80.65;97808.56;8399716;28;19920;-71
2022/04/05 08:16:40;;;;;;;;;;;;;;;6.03;79.58;97796.41;8399820;28;19926;-71
2022/04/05 08:20:41;;;;;;;;;;;;;;;5.94;78.05;97798.28;8399591;28;20023;-71
2022/04/05 08:24:42;;;;;;;;;;;;;;;5.99;77.70;97811.53;8399665;28;20383;-72
2022/04/05 08:28:44;;;;;;;;;;;;;;;6.05;77.26;97804.94;8399507;28;20303;-70
2022/04/05 08:32:46;;;;;;;;;;;;;;;6.07;76.52;97813.47;8399817;28;19948;-71
2022/04/05 08:36:47;;;;;;;;;;;;;;;6.16;75.82;97822.31;8396819;28;20011;-71
2022/04/05 08:40:48;;;;;;;;;;;;;;;6.24;74.78;97823.41;8397254;28;20011;-71
2022/04/05 08:44:49;;;;;;;;;;;;;;;6.46;75.17;97827.91;8399076;28;20010;-72
2022/04/05 08:48:52;;;;;;;;;;;;;;;6.49;74.92;97824.59;8398638;28;19920;-71
2022/04/05 08:52:55;;;;;;;;;;;;;;;6.56;75.25;97851.75;8397777;28;19974;-71
2022/04/05 08:56:55;;;;;;;;;;;;;;;6.55;75.46;97842.13;8398999;28;19921;-70
2022/04/05 09:00:56;;;;;;;;;;;;;;;6.58;74.86;97844.19;8399417;28;19927;-71
2022/04/05 09:04:57;;;;;;;;;;;;;;;6.59;75.00;97841.19;8362380;28;19967;-70
2022/04/05 09:08:58;;;;;;;;;;;;;;;6.62;74.83;97845.13;8398433;28;20372;-71
2022/04/05 09:12:59;;;;;;;;;;;;;;;6.46;74.01;97846.66;8398232;28;19920;-71
2022/04/05 09:17:12;;;;;;;;;;;;;;;6.36;75.02;97853.91;8397844;28;20322;-71
2022/04/05 09:21:16;;;;;;;;;;;;;;;6.30;75.71;97860.50;8396944;28;19924;-71
2022/04/05 09:25:17;;;;;;;;;;;;;;;6.31;75.73;97862.09;8398037;28;20345;-71
2022/04/05 09:29:18;;;;;;;;;;;;;;;6.43;75.38;97852.66;8397839;28;20307;-71
2022/04/05 09:33:19;;;;;;;;;;;;;;;6.58;75.38;97861.06;8397502;28;19920;-71
2022/04/05 09:37:26;;;;;;;;;;;;;;;6.66;74.54;97856.84;8395029;28;20006;-71
2022/04/05 09:41:27;;;;;;;;;;;;;;;6.84;73.79;97853.06;8397211;28;19920;-71
2022/04/05 09:45:47;;;;;;;;;;;;;;;6.92;74.33;97860.34;8396735;28;19982;-71
2022/04/05 09:49:49;;;;;;;;;;;;;;;7.02;71.72;97860.03;8396901;28;19920;-71
2022/04/05 09:53:51;;;;;;;;;;;;;;;7.12;73.13;97865.09;8396779;28;19920;-71
2022/04/05 09:57:52;;;;;;;;;;;;;;;7.45;71.88;97872.66;8394375;28;20219;-72
2022/04/05 10:01:56;;;;;;;;;;;;;;;7.50;71.49;97864.44;8394411;28;20644;-72
2022/04/05 10:05:57;;;;;;;;;;;;;;;7.47;69.88;97875.78;8395972;28;19920;-71
2022/04/05 10:09:59;;;;;;;;;;;;;;;7.40;69.10;97875.50;8396091;28;20346;-71
2022/04/05 10:14:01;;;;;;;;;;;;;;;7.26;69.61;97874.84;8394428;28;19924;-71
2022/04/05 10:18:02;;;;;;;;;;;;;;;7.30;69.98;97875.78;8395480;28;19924;-71
2022/04/05 10:22:03;;;;;;;;;;;;;;;7.03;70.90;97888.44;8393780;28;19921;-71
2022/04/05 10:26:04;;;;;;;;;;;;;;;6.96;71.70;97890.81;8395885;28;19920;-71
2022/04/05 10:30:08;;;;;;;;;;;;;;;6.91;71.71;97899.00;8395669;28;19924;-71
2022/04/05 10:34:14;;;;;;;;;;;;;;;6.75;71.97;97908.59;8395374;28;19920;-71
2022/04/05 10:38:18;;;;;;;;;;;;;;;6.78;72.96;97897.25;8394376;28;19928;-71
2022/04/05 10:42:21;;;;;;;;;;;;;;;7.01;71.48;97896.03;8395462;28;19928;-71
2022/04/05 10:46:48;;;;;;;;;;;;;;;7.29;71.02;97906.47;8395458;28;20379;-72
2022/04/05 10:51:09;;;;;;;;;;;;;;;7.50;68.58;97896.66;8325466;28;20020;-71
2022/04/05 10:55:12;;;;;;;;;;;;;;;7.67;68.10;97896.63;8325392;28;19928;-71
2022/04/05 10:59:16;;;;;;;;;;;;;;;7.73;67.73;97906.09;8325297;28;19929;-71
2022/04/05 11:03:17;;;;;;;;;;;;;;;8.06;67.17;97909.81;8324988;28;19925;-72
2022/04/05 11:07:18;;;;;;;;;;;;;;;8.03;66.45;97905.09;8324817;28;20435;-71
2022/04/05 11:11:19;;;;;;;;;;;;;;;8.15;65.90;97917.06;8325379;28;19921;-71
2022/04/05 11:15:19;;;;;;;;;;;;;;;8.11;65.24;97908.06;8307973;28;19967;-71
2022/04/05 11:19:26;;;;;;;;;;;;;;;8.01;65.36;97907.31;8324832;28;19921;-71
2022/04/05 11:23:38;;;;;;;;;;;;;;;8.26;64.43;97912.91;8325268;28;19921;-71
2022/04/05 11:27:45;;;;;;;;;;;;;;;8.41;63.17;97904.34;8358193;28;19927;-71
2022/04/05 11:31:46;;;;;;;;;;;;;;;8.47;61.26;97913.81;8401695;28;19920;-72
2022/04/05 11:35:51;;;;;;;;;;;;;;;8.85;62.22;97909.19;8400957;28;19924;-71
2022/04/05 11:39:52;;;;;;;;;;;;;;;9.01;60.87;97912.09;8401301;28;20027;-71
2022/04/05 11:43:57;;;;;;;;;;;;;;;9.10;60.26;97925.50;8400810;28;19947;-71
2022/04/05 11:47:59;;;;;;;;;;;;;;;9.10;59.45;97925.50;8400828;28;19927;-71
2022/04/05 11:51:59;;;;;;;;;;;;;;;9.09;60.04;97940.09;8396708;28;19943;-71
2022/04/05 11:56:08;;;;;;;;;;;;;;;8.94;56.69;97921.78;8396544;28;19928;-71
2022/04/05 12:00:10;;;;;;;;;;;;;;;8.77;58.30;97923.50;8396732;28;19946;-71
2022/04/05 12:04:20;;;;;;;;;;;;;;;9.12;58.02;97917.88;8396081;28;19920;-71
2022/04/05 12:08:21;;;;;;;;;;;;;;;9.77;57.96;97924.50;8412850;28;20020;-71
2022/04/05 12:12:24;;;;;;;;;;;;;;;9.86;56.70;97930.59;8379116;28;20379;-71
2022/04/05 12:16:26;;;;;;;;;;;;;;;9.60;55.20;97934.31;8396190;28;19920;-71
2022/04/05 12:20:30;;;;;;;;;;;;;;;9.67;53.96;97923.78;8414127;28;19921;-70
2022/04/05 12:24:31;;;;;;;;;;;;;;;9.45;51.88;97953.00;8400364;28;19920;-71
2022/04/05 12:28:36;;;;;;;;;;;;;;;9.39;52.64;97938.91;8414365;28;20329;-71
2022/04/05 12:32:38;;;;;;;;;;;;;;;9.59;52.76;97921.94;8399194;28;19920;-71
2022/04/05 12:36:40;;;;;;;;;;;;;;;9.76;54.16;97937.19;8399873;28;19957;-72
2022/04/05 12:40:41;;;;;;;;;;;;;;;9.45;54.61;97937.63;8430292;28;19927;-71
2022/04/05 12:44:42;;;;;;;;;;;;;;;9.06;55.50;97941.53;8399002;28;19935;-71
2022/04/05 12:48:43;;;;;;;;;;;;;;;8.82;56.79;97947.53;8398980;28;19920;-71
2022/04/05 12:52:45;;;;;;;;;;;;;;;8.73;58.34;97943.28;8379960;28;19924;-71
2022/04/05 12:56:45;;;;;;;;;;;;;;;8.55;59.98;97947.97;8398490;28;19920;-71
2022/04/05 13:00:46;;;;;;;;;;;;;;;8.43;60.95;97950.56;8398782;28;19927;-71
2022/04/05 13:04:47;;;;;;;;;;;;;;;8.27;62.29;97952.94;8398267;28;19924;-71
2022/04/05 13:08:49;;;;;;;;;;;;;;;8.09;64.33;97958.72;8398331;28;19924;-71
2022/04/05 13:12:50;;;;;;;;;;;;;;;7.90;66.06;97959.84;8398371;28;19920;-71
2022/04/05 13:16:59;;;;;;;;;;;;;;;7.75;67.92;97957.63;8397988;28;20346;-71
2022/04/05 13:21:04;;;;;;;;;;;;;;;7.65;68.87;97963.34;8395716;28;20383;-71
2022/04/05 13:25:05;;;;;;;;;;;;;;;7.72;69.03;97947.50;8397750;28;19924;-71
2022/04/05 13:29:08;;;;;;;;;;;;;;;7.80;68.99;97949.41;8395844;28;20391;-72
2022/04/05 13:33:09;;;;;;;;;;;;;;;8.16;65.04;97958.97;8397743;28;19974;-71
2022/04/05 13:37:19;;;;;;;;;;;;;;;8.54;58.70;97957.16;8397684;28;19931;-71
2022/04/05 13:41:21;;;;;;;;;;;;;;;8.63;59.73;97955.22;8396443;28;19921;-71
2022/04/05 13:45:26;;;;;;;;;;;;;;;8.60;61.14;97966.63;8397196;28;19921;-71
2022/04/05 13:49:26;;;;;;;;;;;;;;;8.53;60.83;97955.56;8397367;28;19920;-71
2022/04/05 13:53:28;;;;;;;;;;;;;;;8.37;60.63;97957.22;8397185;28;19920;-71
2022/04/05 13:57:28;;;;;;;;;;;;;;;8.26;61.40;97972.09;8396856;28;19974;-71
2022/04/05 14:01:33;;;;;;;;;;;;;;;8.24;61.61;97952.81;8397030;28;20368;-71
2022/04/05 14:05:34;;;;;;;;;;;;;;;8.07;62.42;97965.19;8394218;28;19921;-71
2022/04/05 14:09:37;;;;;;;;;;;;;;;8.04;62.75;97971.19;8396065;28;19966;-71
2022/04/05 14:13:38;;;;;;;;;;;;;;;7.97;63.12;97970.91;8377424;28;19927;-71
2022/04/05 14:17:40;;;;;;;;;;;;;;;7.92;63.44;97963.00;8396275;28;20007;-71
2022/04/05 14:21:41;;;;;;;;;;;;;;;8.01;62.96;97966.47;8396548;28;19927;-70
2022/04/05 14:25:45;;;;;;;;;;;;;;;7.90;62.40;97965.22;8394825;28;19927;-71
2022/04/05 14:30:06;;;;;;;;;;;;;;;7.79;62.48;97961.25;8396023;28;19932;-71
2022/04/05 14:34:07;;;;;;;;;;;;;;;7.70;62.28;97971.25;8375686;28;19920;-71
2022/04/05 14:38:09;;;;;;;;;;;;;;;7.71;62.75;97977.41;8391707;28;19927;-70
2022/04/05 14:42:13;;;;;;;;;;;;;;;7.54;63.64;97978.19;8391874;28;20024;-71
2022/04/05 14:46:14;;;;;;;;;;;;;;;7.52;64.97;97985.78;8391538;28;20367;-71
2022/04/05 14:50:16;;;;;;;;;;;;;;;7.45;67.64;98001.59;8374560;28;20450;-71
2022/04/05 14:54:16;;;;;;;;;;;;;;;7.35;68.55;97986.53;8391330;28;19920;-71
2022/04/05 14:58:17;;;;;;;;;;;;;;;7.26;69.93;97987.63;8391152;28;19924;-71
2022/04/05 15:02:19;;;;;;;;;;;;;;;7.13;71.23;97984.78;8390729;28;19920;-71
2022/04/05 15:06:22;;;;;;;;;;;;;;;7.18;71.73;97992.69;8391229;28;19928;-71
2022/04/05 15:10:24;;;;;;;;;;;;;;;7.28;71.69;97980.88;8392588;28;19954;-71
2022/04/05 15:14:25;;;;;;;;;;;;;;;7.51;70.89;97981.50;8395020;28;19921;-71
2022/04/05 15:18:25;;;;;;;;;;;;;;;7.76;69.46;97979.94;8395334;28;20380;-72
2022/04/05 15:22:28;;;;;;;;;;;;;;;7.78;68.59;97972.31;8394812;28;20384;-71
2022/04/05 15:26:29;;;;;;;;;;;;;;;7.87;67.55;97981.97;8393900;28;19926;-71
2022/04/05 15:30:32;;;;;;;;;;;;;;;7.85;67.07;97972.66;8379680;28;19928;-71
2022/04/05 15:34:33;;;;;;;;;;;;;;;7.79;66.60;97974.69;8378670;28;19925;-71
2022/04/05 15:38:34;;;;;;;;;;;;;;;7.74;67.10;97982.13;8368450;28;19927;-71
2022/04/05 15:42:35;;;;;;;;;;;;;;;7.75;67.12;97983.72;8374726;28;19920;-70
2022/04/05 15:46:36;;;;;;;;;;;;;;;7.70;67.53;97982.00;8336951;28;20009;-70
2022/04/05 15:50:37;;;;;;;;;;;;;;;7.69;67.95;97980.41;8390938;28;20395;-71
2022/04/05 15:54:38;;;;;;;;;;;;;;;7.66;67.34;97991.78;8340824;28;19920;-71
2022/04/05 15:58:39;;;;;;;;;;;;;;;7.63;67.67;97987.84;8393898;28;20334;-71
2022/04/05 16:02:40;;;;;;;;;;;;;;;7.54;68.53;97999.69;8390423;28;19956;-70
2022/04/05 16:06:41;;;;;;;;;;;;;;;7.56;69.32;98002.84;8383505;28;19924;-71
2022/04/05 16:10:44;;;;;;;;;;;;;;;7.51;69.28;98000.31;8383286;28;19920;-71
2022/04/05 16:14:45;;;;;;;;;;;;;;;7.38;69.95;98012.78;8423859;28;20031;-70
2022/04/05 16:18:46;;;;;;;;;;;;;;;7.26;70.75;98009.13;8412374;28;20014;-71
2022/04/05 16:22:47;;;;;;;;;;;;;;;7.26;71.33;98009.13;8403246;28;19948;-71
2022/04/05 16:26:48;;;;;;;;;;;;;;;7.35;71.43;98001.91;8403390;28;19966;-71
2022/04/05 16:30:49;;;;;;;;;;;;;;;7.27;71.62;98005.34;8427342;28;20437;-71
2022/04/05 16:34:49;;;;;;;;;;;;;;;7.32;71.63;98005.19;8394201;28;19927;-71
2022/04/05 16:38:50;;;;;;;;;;;;;;;7.18;72.30;98002.66;8427554;28;19920;-71
2022/04/05 16:42:54;;;;;;;;;;;;;;;7.19;72.53;98006.91;8426960;28;19920;-71
2022/04/05 16:46:55;;;;;;;;;;;;;;;7.26;72.71;98003.75;8398413;28;19920;-70
2022/04/05 16:50:56;;;;;;;;;;;;;;;7.13;73.03;98011.66;8396768;28;19926;-71
2022/04/05 16:54:58;;;;;;;;;;;;;;;7.18;73.13;98011.50;8396576;28;20274;-72
2022/04/05 16:58:59;;;;;;;;;;;;;;;7.11;73.50;98008.47;8398167;28;20457;-70
2022/04/05 17:03:00;;;;;;;;;;;;;;;6.99;74.37;98004.78;8391590;28;19924;-71
2022/04/05 17:07:01;;;;;;;;;;;;;;;6.99;74.96;98004.78;8397683;28;19920;-71
2022/04/05 17:11:02;;;;;;;;;;;;;;;6.89;75.55;98021.19;8397523;28;19920;-72
2022/04/05 17:15:08;;;;;;;;;;;;;;;6.88;76.26;98009.66;8397593;28;19953;-70
2022/04/05 17:19:11;;;;;;;;;;;;;;;6.81;76.80;98003.97;8395594;28;19921;-71
2022/04/05 17:23:12;;;;;;;;;;;;;;;6.86;77.82;98011.88;8398117;28;20018;-71
2022/04/05 17:27:13;;;;;;;;;;;;;;;6.80;78.54;98007.75;8395096;28;20295;-71
2022/04/05 17:31:14;;;;;;;;;;;;;;;6.64;79.85;98003.91;8397001;28;19920;-72
2022/04/05 17:35:15;;;;;;;;;;;;;;;6.61;80.97;98005.28;8402239;28;20406;-71
2022/04/05 17:39:16;;;;;;;;;;;;;;;6.51;82.29;98010.13;8397071;28;20299;-72
2022/04/05 17:43:17;;;;;;;;;;;;;;;6.43;83.15;98010.88;8395519;28;20019;-71
2022/04/05 17:47:18;;;;;;;;;;;;;;;6.36;84.41;98012.13;8396141;28;19925;-72
2022/04/05 17:51:18;;;;;;;;;;;;;;;6.31;85.80;98012.25;8395783;28;19920;-72
2022/04/05 17:55:19;;;;;;;;;;;;;;;6.28;86.56;98015.56;8396400;28;19920;-71
2022/04/05 17:59:20;;;;;;;;;;;;;;;6.29;87.70;98019.78;8395763;28;20373;-71
2022/04/05 18:03:21;;;;;;;;;;;;;;;6.22;88.36;98016.78;8360982;28;19921;-71
2022/04/05 18:07:22;;;;;;;;;;;;;;;6.20;89.24;98016.28;8395315;28;20019;-71
2022/04/05 18:11:23;;;;;;;;;;;;;;;6.28;89.93;98018.25;8396137;28;19999;-71
2022/04/05 18:15:24;;;;;;;;;;;;;;;6.14;90.46;98028.22;8395695;28;20350;-71
2022/04/05 18:19:25;;;;;;;;;;;;;;;6.10;91.06;98027.25;8396370;28;20382;-71
2022/04/05 18:23:26;;;;;;;;;;;;;;;6.05;91.35;98024.69;8392093;28;19920;-71
2022/04/05 18:27:27;;;;;;;;;;;;;;;6.02;91.46;98030.69;8394662;28;20001;-72
2022/04/05 18:31:28;;;;;;;;;;;;;;;6.06;91.56;98037.00;8358171;28;19920;-71
2022/04/05 18:35:29;;;;;;;;;;;;;;;6.09;91.72;98041.75;8394860;28;19924;-72
2022/04/05 18:39:31;;;;;;;;;;;;;;;6.09;91.93;98036.38;8394088;28;20019;-72
2022/04/05 18:43:33;;;;;;;;;;;;;;;6.04;92.06;98044.56;8395387;28;20280;-71
2022/04/05 18:47:36;;;;;;;;;;;;;;;5.96;92.66;98031.91;8353664;28;19930;-71
2022/04/05 18:51:37;;;;;;;;;;;;;;;5.98;92.07;98035.03;8393925;28;19924;-71
2022/04/05 18:55:42;;;;;;;;;;;;;;;5.96;92.32;98037.25;8392776;28;19965;-71
2022/04/05 18:59:43;;;;;;;;;;;;;;;5.92;92.53;98036.28;8395199;28;20345;-71
2022/04/05 19:03:43;;;;;;;;;;;;;;;5.94;92.50;98034.06;8392537;28;20003;-71
2022/04/05 19:07:46;;;;;;;;;;;;;;;6.04;92.45;98044.56;8392456;28;19924;-71
2022/04/05 19:11:48;;;;;;;;;;;;;;;5.94;92.90;98039.44;8393591;28;19981;-70
2022/04/05 19:15:51;;;;;;;;;;;;;;;5.88;93.10;98035.28;8409539;28;19927;-71
2022/04/05 19:19:54;;;;;;;;;;;;;;;5.85;93.33;98046.59;8394192;28;19927;-71
2022/04/05 19:23:59;;;;;;;;;;;;;;;5.83;93.54;98043.41;8393040;28;20300;-71
2022/04/05 19:28:00;;;;;;;;;;;;;;;5.94;93.71;98042.13;8392664;28;19920;-71
2022/04/05 19:32:03;;;;;;;;;;;;;;;5.88;93.77;98037.97;8390460;28;19928;-71
2022/04/05 19:36:06;;;;;;;;;;;;;;;5.97;94.20;98038.84;8386899;28;19925;-71
2022/04/05 19:40:08;;;;;;;;;;;;;;;5.86;94.64;98038.25;8392805;28;19921;-71
2022/04/05 19:44:09;;;;;;;;;;;;;;;5.82;95.28;98041.81;8387304;28;19927;-71
2022/04/05 19:48:11;;;;;;;;;;;;;;;5.80;95.64;98038.69;8392762;28;19956;-71
2022/04/05 19:52:16;;;;;;;;;;;;;;;5.78;96.14;98035.50;8379567;28;20272;-71
2022/04/05 19:56:27;;;;;;;;;;;;;;;5.71;96.76;98019.06;8377644;28;19935;-71
2022/04/05 20:00:29;;;;;;;;;;;;;;;5.70;97.06;98022.84;8396148;28;19927;-71
2022/04/05 20:04:33;;;;;;;;;;;;;;;5.70;97.51;98017.47;8392312;28;19920;-71
2022/04/05 20:08:35;;;;;;;;;;;;;;;5.63;98.70;98011.75;8397737;28;19920;-70
2022/04/05 20:12:39;;;;;;;;;;;;;;;5.57;100.00;97996.88;8399580;28;19928;-70
2022/04/05 20:21:03;;;;;;;;;;;;;;;5.47;100.00;97988.00;8399736;28;19920;-71
2022/04/05 20:25:05;;;;;;;;;;;;;;;5.49;100.00;97982.34;8397143;28;19924;-71
2022/04/05 20:29:07;;;;;;;;;;;;;;;5.47;100.00;97982.63;8399330;28;20010;-71
2022/04/05 20:33:09;;;;;;;;;;;;;;;5.46;100.00;97964.97;8347601;28;19924;-70
2022/04/05 20:37:12;;;;;;;;;;;;;;;5.50;100.00;97965.94;8399417;28;19976;-71
2022/04/05 20:41:14;;;;;;;;;;;;;;;5.56;100.00;97968.50;8398361;28;19924;-70
2022/04/05 20:45:17;;;;;;;;;;;;;;;5.56;100.00;97957.78;8378030;28;20401;-71
2022/04/05 20:49:18;;;;;;;;;;;;;;;5.61;100.00;97944.28;8378036;28;20392;-71
2022/04/05 20:53:19;;;;;;;;;;;;;;;5.66;100.00;97952.22;8394846;28;19966;-71
2022/04/05 20:57:23;;;;;;;;;;;;;;;5.66;100.00;97941.50;8394683;28;20023;-71
2022/04/05 21:01:24;;;;;;;;;;;;;;;5.64;100.00;97949.03;8393893;28;20346;-71
2022/04/05 21:05:25;;;;;;;;;;;;;;;5.64;100.00;97927.63;8394115;28;20010;-71
2022/04/05 21:09:26;;;;;;;;;;;;;;;5.63;100.00;97926.03;8393976;28;20487;-71
2022/04/05 21:13:26;;;;;;;;;;;;;;;5.68;100.00;97939.31;8394395;28;19927;-71
2022/04/05 21:17:28;;;;;;;;;;;;;;;5.60;100.00;97926.66;8394173;28;19950;-71